Time;durP1;ratioP1;P1;durP2;ratioP2;P2;SDS_P1;SDS_P2;PMS_P1;PMS_P2;Temp;Humidity;BMP_temperature;BMP_pressure;BME280_temperature;BME280_humidity;BME280_pressure;Samples;Min_cycle;Max_cycle;Signal;HPM_P1;HPM_P2
2023/08/14 00:00:30;;;;;;;4.15;2.33;;;24.00;99.90;;;;;;6182859;23;20005;-74
2023/08/14 00:02:56;;;;;;;3.08;2.50;;;24.00;99.90;;;;;;6184050;23;20005;-73
2023/08/14 00:05:22;;;;;;;6.28;2.30;;;24.00;99.90;;;;;;6184371;23;20341;-74
2023/08/14 00:07:48;;;;;;;2.40;2.30;;;24.00;99.90;;;;;;6184145;23;19998;-74
2023/08/14 00:10:13;;;;;;;2.58;2.38;;;23.90;99.90;;;;;;6182902;23;20009;-74
2023/08/14 00:12:39;;;;;;;3.25;2.30;;;23.80;99.90;;;;;;6182731;23;20005;-73
2023/08/14 00:15:05;;;;;;;2.55;2.28;;;23.80;99.90;;;;;;6182716;23;20005;-73
2023/08/14 00:17:31;;;;;;;2.65;2.45;;;23.80;99.90;;;;;;6184051;23;20001;-73
2023/08/14 00:19:59;;;;;;;2.72;2.53;;;23.80;99.90;;;;;;6184298;23;20016;-73
2023/08/14 00:22:25;;;;;;;3.25;2.25;;;23.80;99.90;;;;;;6184172;23;20519;-73
2023/08/14 00:24:51;;;;;;;3.00;2.33;;;23.80;99.90;;;;;;6184019;23;20005;-73
2023/08/14 00:27:16;;;;;;;2.50;2.30;;;23.80;99.90;;;;;;6184161;23;20464;-73
2023/08/14 00:29:42;;;;;;;5.97;2.83;;;23.70;99.90;;;;;;6184217;23;20493;-73
2023/08/14 00:32:08;;;;;;;2.72;2.53;;;23.70;99.90;;;;;;6183836;23;20389;-73
2023/08/14 00:34:33;;;;;;;3.25;2.38;;;23.70;99.90;;;;;;6183762;23;20076;-73
2023/08/14 00:36:59;;;;;;;2.30;2.20;;;23.70;99.90;;;;;;6184018;23;19997;-73
2023/08/14 00:39:25;;;;;;;2.83;2.28;;;23.70;99.90;;;;;;6185518;23;20004;-73
2023/08/14 00:41:50;;;;;;;4.40;2.75;;;23.60;99.90;;;;;;6182459;23;20016;-73
2023/08/14 00:44:19;;;;;;;2.97;2.63;;;23.60;99.90;;;;;;6183850;23;20448;-73
2023/08/14 00:46:45;;;;;;;4.20;2.17;;;23.60;99.90;;;;;;6182372;23;20441;-73
2023/08/14 00:49:11;;;;;;;2.60;2.50;;;23.60;99.90;;;;;;6183844;23;20040;-73
2023/08/14 00:51:37;;;;;;;2.08;1.98;;;23.60;99.90;;;;;;6184189;23;20044;-76
2023/08/14 00:54:03;;;;;;;2.15;2.05;;;23.50;99.90;;;;;;6183298;23;20012;-76
2023/08/14 00:56:29;;;;;;;5.55;2.28;;;23.60;99.90;;;;;;6184174;23;20048;-76
2023/08/14 00:58:56;;;;;;;3.17;2.42;;;23.50;99.90;;;;;;6183416;23;20036;-76
2023/08/14 01:01:23;;;;;;;3.35;2.20;;;23.50;99.90;;;;;;6180082;23;20005;-77
2023/08/14 01:03:49;;;;;;;3.30;2.22;;;23.50;99.90;;;;;;6182056;23;20001;-76
2023/08/14 01:06:15;;;;;;;2.20;2.10;;;23.60;99.90;;;;;;6181364;23;20329;-76
2023/08/14 01:08:41;;;;;;;2.95;2.40;;;23.50;99.90;;;;;;6181070;23;20025;-76
2023/08/14 01:11:44;;;;;;;2.67;2.42;;;23.50;99.90;;;;;;6182055;23;20008;-76
2023/08/14 01:14:24;;;;;;;2.78;2.22;;;23.50;99.90;;;;;;6183474;23;20433;-76
2023/08/14 01:16:54;;;;;;;3.17;2.13;;;23.50;99.90;;;;;;6181374;23;20433;-76
2023/08/14 01:19:28;;;;;;;2.60;2.40;;;23.40;99.90;;;;;;6181536;23;20088;-76
2023/08/14 01:22:17;;;;;;;4.63;1.98;;;23.40;99.90;;;;;;6179683;23;20340;-76
2023/08/14 01:24:58;;;;;;;4.35;2.17;;;23.40;99.90;;;;;;6160470;23;20001;-76
2023/08/14 01:27:24;;;;;;;2.22;2.13;;;23.40;99.90;;;;;;6180984;23;20015;-76
2023/08/14 01:29:57;;;;;;;2.60;2.40;;;23.40;99.90;;;;;;6181694;23;20028;-76
2023/08/14 01:32:23;;;;;;;2.95;1.92;;;23.40;99.90;;;;;;6183134;23;20028;-76
2023/08/14 01:34:49;;;;;;;3.85;2.25;;;23.40;99.90;;;;;;6183526;23;20426;-76
2023/08/14 01:37:38;;;;;;;5.82;2.20;;;23.40;99.90;;;;;;6183370;23;20441;-76
2023/08/14 01:40:37;;;;;;;1.90;1.80;;;23.40;99.90;;;;;;6167912;23;20013;-76
2023/08/14 01:43:12;;;;;;;1.95;1.85;;;23.40;99.90;;;;;;6183039;23;20062;-76
2023/08/14 01:45:39;;;;;;;2.35;2.25;;;23.30;99.90;;;;;;6182159;23;20426;-76
2023/08/14 01:48:10;;;;;;;3.13;2.00;;;23.30;99.90;;;;;;6181454;23;20012;-76
2023/08/14 01:50:38;;;;;;;3.57;2.07;;;23.30;99.90;;;;;;6183501;23;20024;-76
2023/08/14 01:53:03;;;;;;;2.42;2.08;;;23.30;99.90;;;;;;6183098;23;20016;-76
2023/08/14 01:55:29;;;;;;;2.65;1.80;;;23.30;99.90;;;;;;6183330;23;20001;-76
2023/08/14 01:57:55;;;;;;;3.42;2.17;;;23.30;99.90;;;;;;6183352;23;20005;-76
2023/08/14 02:00:21;;;;;;;1.50;1.40;;;23.30;99.90;;;;;;6183602;23;20056;-76
2023/08/14 02:02:47;;;;;;;1.73;1.63;;;23.30;99.90;;;;;;6181637;23;20028;-76
2023/08/14 02:05:13;;;;;;;4.35;2.08;;;23.30;99.90;;;;;;6183291;23;20084;-76
2023/08/14 02:07:39;;;;;;;2.75;1.98;;;23.30;99.90;;;;;;6183094;23;20029;-76
2023/08/14 02:10:05;;;;;;;2.25;1.70;;;23.30;99.90;;;;;;6183444;23;20012;-76
2023/08/14 02:12:31;;;;;;;2.53;1.83;;;23.30;99.90;;;;;;6183227;23;20005;-76
2023/08/14 02:14:57;;;;;;;1.85;1.75;;;23.30;99.90;;;;;;6183382;23;20510;-76
2023/08/14 02:17:23;;;;;;;5.40;2.13;;;23.20;99.90;;;;;;6182992;23;20004;-76
2023/08/14 02:19:48;;;;;;;2.33;2.22;;;23.20;99.90;;;;;;6183120;23;20008;-76
2023/08/14 02:22:14;;;;;;;2.13;1.77;;;23.00;99.90;;;;;;6183194;23;20051;-76
2023/08/14 02:24:40;;;;;;;3.08;1.80;;;23.00;99.90;;;;;;6183195;23;20080;-76
2023/08/14 02:27:05;;;;;;;4.88;2.28;;;23.00;99.90;;;;;;6183113;23;20076;-76
2023/08/14 02:29:31;;;;;;;4.00;2.33;;;23.00;99.90;;;;;;6183137;23;20457;-76
2023/08/14 02:31:57;;;;;;;2.83;2.00;;;23.00;99.90;;;;;;6182884;23;20016;-76
2023/08/14 02:34:43;;;;;;;4.72;2.03;;;23.10;99.90;;;;;;6183168;23;20011;-76
2023/08/14 02:37:10;;;;;;;2.63;1.50;;;23.00;99.90;;;;;;6183146;23;20008;-76
2023/08/14 02:39:36;;;;;;;2.72;1.58;;;23.00;99.90;;;;;;6183217;23;20005;-76
2023/08/14 02:42:01;;;;;;;2.08;1.80;;;23.00;99.90;;;;;;6185264;23;20004;-76
2023/08/14 02:44:27;;;;;;;2.10;1.85;;;23.00;99.90;;;;;;6185110;23;20433;-76
2023/08/14 02:46:53;;;;;;;2.08;1.80;;;23.00;99.90;;;;;;6185037;23;20001;-76
2023/08/14 02:49:19;;;;;;;3.95;2.15;;;23.00;99.90;;;;;;6184975;23;19997;-76
2023/08/14 02:51:45;;;;;;;3.40;1.80;;;23.00;99.90;;;;;;6185132;23;20017;-76
2023/08/14 02:54:10;;;;;;;2.30;1.95;;;23.00;99.90;;;;;;6184815;23;20001;-76
2023/08/14 02:56:37;;;;;;;2.75;1.70;;;23.00;99.90;;;;;;6184659;23;20005;-76
2023/08/14 02:59:02;;;;;;;1.90;1.80;;;23.00;99.90;;;;;;6184766;23;20005;-76
2023/08/14 03:01:28;;;;;;;2.28;2.15;;;23.00;99.90;;;;;;6185084;23;20319;-76
2023/08/14 03:03:54;;;;;;;2.13;1.70;;;22.90;99.90;;;;;;6184544;23;20079;-77
2023/08/14 03:06:23;;;;;;;2.13;1.95;;;22.90;99.90;;;;;;6183640;23;20001;-76
2023/08/14 03:08:52;;;;;;;4.85;2.25;;;22.90;99.90;;;;;;6184783;23;20518;-76
2023/08/14 03:11:18;;;;;;;2.25;1.85;;;22.90;99.90;;;;;;6185136;23;20036;-76
2023/08/14 03:13:43;;;;;;;3.83;1.98;;;22.80;99.90;;;;;;6184748;23;20083;-76
2023/08/14 03:16:09;;;;;;;4.43;2.17;;;22.80;99.90;;;;;;6185071;23;20461;-76
2023/08/14 03:18:35;;;;;;;4.80;2.20;;;22.80;99.90;;;;;;6184381;23;20060;-76
2023/08/14 03:21:00;;;;;;;5.10;2.15;;;22.80;99.90;;;;;;6183274;23;20013;-76
2023/08/14 03:23:26;;;;;;;5.95;2.10;;;22.70;99.90;;;;;;6184553;23;20419;-76
2023/08/14 03:25:52;;;;;;;2.25;1.90;;;22.70;99.90;;;;;;6183368;23;20005;-76
2023/08/14 03:28:17;;;;;;;2.53;2.38;;;22.70;99.90;;;;;;6184648;23;19998;-76
2023/08/14 03:30:44;;;;;;;2.35;2.15;;;22.70;99.90;;;;;;6184770;23;20005;-76
2023/08/14 03:33:10;;;;;;;2.72;2.00;;;22.80;99.90;;;;;;6182012;23;20013;-76
2023/08/14 03:35:36;;;;;;;3.55;1.75;;;22.80;99.90;;;;;;6184937;23;20016;-77
2023/08/14 03:38:01;;;;;;;2.05;1.77;;;22.80;99.90;;;;;;6184507;23;20028;-76
2023/08/14 03:40:27;;;;;;;2.22;2.03;;;22.80;99.90;;;;;;6184771;23;20005;-76
2023/08/14 03:42:53;;;;;;;2.50;2.00;;;22.70;99.90;;;;;;6184344;23;20001;-76
2023/08/14 03:45:18;;;;;;;5.10;1.80;;;22.70;99.90;;;;;;6184527;23;20005;-76
2023/08/14 03:47:47;;;;;;;4.55;1.83;;;22.70;99.90;;;;;;6184277;23;20004;-76
2023/08/14 03:50:13;;;;;;;3.10;2.35;;;22.60;99.90;;;;;;6184671;23;20009;-76
2023/08/14 03:52:39;;;;;;;3.85;2.05;;;22.60;99.90;;;;;;6182524;23;20471;-76
2023/08/14 03:55:04;;;;;;;2.08;1.88;;;22.60;99.90;;;;;;6184569;23;20001;-76
2023/08/14 03:57:30;;;;;;;2.00;1.90;;;22.60;99.90;;;;;;6184496;23;20008;-76
2023/08/14 03:59:56;;;;;;;2.42;2.15;;;22.50;99.90;;;;;;6184517;23;20001;-76
2023/08/14 04:02:21;;;;;;;3.45;2.00;;;22.50;99.90;;;;;;6184040;23;20001;-76
2023/08/14 04:04:47;;;;;;;2.33;1.92;;;22.60;99.90;;;;;;6184525;23;20068;-76
2023/08/14 04:07:13;;;;;;;2.25;1.73;;;22.60;99.90;;;;;;6184384;23;20032;-76
2023/08/14 04:09:39;;;;;;;4.72;2.40;;;22.50;99.90;;;;;;6184522;23;20374;-76
2023/08/14 04:12:05;;;;;;;2.20;2.00;;;22.60;99.90;;;;;;6184438;23;20005;-76
2023/08/14 04:14:33;;;;;;;4.35;1.92;;;22.60;99.90;;;;;;6184264;23;20024;-76
2023/08/14 04:16:59;;;;;;;6.15;2.00;;;22.60;99.90;;;;;;6182258;23;20040;-76
2023/08/14 04:19:25;;;;;;;3.05;2.10;;;22.60;99.90;;;;;;6184438;23;19997;-76
2023/08/14 04:21:50;;;;;;;3.30;1.60;;;22.60;99.90;;;;;;6182750;23;20319;-76
2023/08/14 04:24:16;;;;;;;2.20;2.10;;;22.60;99.90;;;;;;6184156;23;20004;-76
2023/08/14 04:26:42;;;;;;;4.88;2.03;;;22.60;99.90;;;;;;6184311;23;20067;-76
2023/08/14 04:29:12;;;;;;;2.72;1.88;;;22.60;99.90;;;;;;6184138;23;20005;-76
2023/08/14 04:31:40;;;;;;;2.95;2.25;;;22.60;99.90;;;;;;6184410;23;20005;-76
2023/08/14 04:34:06;;;;;;;5.85;2.58;;;22.50;99.90;;;;;;6183778;23;20445;-76
2023/08/14 04:36:33;;;;;;;4.18;2.00;;;22.50;99.90;;;;;;6184230;23;20008;-76
2023/08/14 04:38:59;;;;;;;3.38;2.60;;;22.40;99.90;;;;;;6183943;23;20440;-76
2023/08/14 04:41:26;;;;;;;4.85;2.30;;;22.40;99.90;;;;;;6184268;23;20027;-76
2023/08/14 04:43:53;;;;;;;2.67;2.47;;;22.40;99.90;;;;;;6183524;23;20001;-76
2023/08/14 04:46:36;;;;;;;2.78;1.95;;;22.40;99.90;;;;;;6184288;23;19997;-76
2023/08/14 04:49:03;;;;;;;2.58;2.30;;;22.40;99.90;;;;;;6183595;23;20393;-76
2023/08/14 04:51:29;;;;;;;4.28;2.42;;;22.40;99.90;;;;;;6182248;23;20031;-76
2023/08/14 04:53:57;;;;;;;3.60;2.30;;;22.40;99.90;;;;;;6181844;23;20005;-76
2023/08/14 04:56:23;;;;;;;2.28;2.15;;;22.40;99.90;;;;;;6184163;23;20075;-76
2023/08/14 04:58:49;;;;;;;2.33;2.13;;;22.50;99.90;;;;;;6183889;23;20469;-76
2023/08/14 05:01:15;;;;;;;4.30;2.53;;;22.50;99.90;;;;;;6184002;23;20008;-76
2023/08/14 05:03:41;;;;;;;7.15;2.58;;;22.50;99.90;;;;;;6182937;23;20001;-76
2023/08/14 05:06:07;;;;;;;2.60;2.20;;;22.50;99.90;;;;;;6182518;23;20009;-76
2023/08/14 05:08:33;;;;;;;3.05;2.60;;;22.50;99.90;;;;;;6183775;23;19997;-76
2023/08/14 05:10:58;;;;;;;3.03;2.60;;;22.50;99.90;;;;;;6184101;23;20001;-76
2023/08/14 05:13:24;;;;;;;3.83;2.00;;;22.50;99.90;;;;;;6183497;23;20011;-76
2023/08/14 05:15:51;;;;;;;2.30;2.10;;;22.50;99.90;;;;;;6184023;23;20345;-76
2023/08/14 05:18:17;;;;;;;3.67;2.30;;;22.60;99.90;;;;;;6183556;23;20111;-76
2023/08/14 05:20:45;;;;;;;4.88;2.38;;;22.60;99.90;;;;;;6183758;23;20005;-76
2023/08/14 05:23:12;;;;;;;3.15;2.33;;;22.70;99.90;;;;;;6183578;23;19997;-76
2023/08/14 05:25:41;;;;;;;4.13;2.65;;;22.70;99.90;;;;;;6182244;23;20008;-76
2023/08/14 05:28:07;;;;;;;2.33;2.13;;;22.80;99.90;;;;;;6183637;23;19997;-76
2023/08/14 05:30:32;;;;;;;2.75;2.55;;;22.80;99.90;;;;;;6182297;23;20067;-76
2023/08/14 05:32:58;;;;;;;2.38;2.17;;;22.90;99.90;;;;;;6183111;23;20012;-76
2023/08/14 05:35:24;;;;;;;2.40;2.20;;;22.90;99.90;;;;;;6183899;23;20001;-77
2023/08/14 05:37:55;;;;;;;2.45;2.35;;;22.90;99.90;;;;;;6183491;23;20028;-76
2023/08/14 05:40:25;;;;;;;3.05;2.78;;;23.00;99.90;;;;;;6183698;23;20066;-76
2023/08/14 05:43:10;;;;;;;2.47;2.28;;;23.00;99.90;;;;;;6183446;23;20005;-76
2023/08/14 05:45:43;;;;;;;5.13;2.25;;;23.10;99.90;;;;;;6181941;23;20345;-76
2023/08/14 05:48:09;;;;;;;2.30;2.10;;;23.10;99.90;;;;;;6183293;23;20445;-76
2023/08/14 05:50:35;;;;;;;5.13;2.38;;;23.10;99.90;;;;;;6183319;23;20001;-76
2023/08/14 05:53:06;;;;;;;2.80;2.60;;;23.20;99.90;;;;;;6183318;23;20009;-76
2023/08/14 05:55:33;;;;;;;3.03;2.60;;;23.20;99.90;;;;;;6183686;23;20005;-76
2023/08/14 05:58:00;;;;;;;2.58;2.38;;;23.30;99.90;;;;;;6183351;23;20047;-76
2023/08/14 06:00:27;;;;;;;3.88;2.90;;;23.30;99.90;;;;;;6181994;23;20031;-76
2023/08/14 06:02:53;;;;;;;5.18;2.67;;;23.40;99.90;;;;;;6183192;23;19997;-77
2023/08/14 06:05:19;;;;;;;2.80;2.60;;;23.40;99.90;;;;;;6183605;23;20080;-76
2023/08/14 06:07:47;;;;;;;3.58;2.58;;;23.40;99.90;;;;;;6183227;23;20048;-76
2023/08/14 06:10:13;;;;;;;2.35;2.03;;;23.40;99.90;;;;;;6183571;23;20008;-76
2023/08/14 06:12:39;;;;;;;2.95;2.58;;;23.50;99.90;;;;;;6183226;23;20421;-76
2023/08/14 06:15:05;;;;;;;2.63;2.35;;;23.50;99.90;;;;;;6183484;23;20363;-76
2023/08/14 06:17:32;;;;;;;3.38;2.28;;;23.60;99.90;;;;;;6183072;23;19993;-76
2023/08/14 06:19:58;;;;;;;3.38;2.65;;;23.60;99.90;;;;;;6183439;23;20040;-76
2023/08/14 06:22:24;;;;;;;3.72;2.35;;;23.70;99.90;;;;;;6183364;23;20329;-76
2023/08/14 06:24:50;;;;;;;2.70;2.50;;;23.80;99.90;;;;;;6183501;23;19997;-76
2023/08/14 06:27:16;;;;;;;5.80;2.50;;;23.90;99.90;;;;;;6183289;23;20106;-76
2023/08/14 06:29:42;;;;;;;4.80;2.80;;;23.90;99.90;;;;;;6181941;23;20032;-76
2023/08/14 06:32:08;;;;;;;6.47;2.63;;;24.00;99.90;;;;;;6183136;23;20385;-76
2023/08/14 06:34:34;;;;;;;2.85;2.53;;;24.00;99.90;;;;;;6183380;23;20009;-76
2023/08/14 06:36:59;;;;;;;2.72;2.63;;;24.10;99.90;;;;;;6183229;23;20495;-76
2023/08/14 06:39:25;;;;;;;2.60;2.50;;;24.20;99.90;;;;;;6183324;23;20001;-76
2023/08/14 06:41:51;;;;;;;3.00;2.70;;;24.20;99.90;;;;;;6182807;23;20005;-76
2023/08/14 06:44:17;;;;;;;4.32;2.70;;;24.30;99.90;;;;;;6181459;23;20109;-76
2023/08/14 06:46:45;;;;;;;6.45;2.58;;;24.40;99.90;;;;;;6183450;23;20338;-76
2023/08/14 06:49:14;;;;;;;4.57;2.70;;;24.40;99.90;;;;;;6182778;23;19997;-76
2023/08/14 06:51:43;;;;;;;4.50;2.80;;;24.50;99.90;;;;;;6183319;23;20020;-76
2023/08/14 06:54:09;;;;;;;3.05;2.30;;;24.60;99.90;;;;;;6182822;23;20001;-76
2023/08/14 06:56:34;;;;;;;3.67;2.42;;;24.60;99.90;;;;;;6183457;23;20031;-76
2023/08/14 06:59:00;;;;;;;2.63;2.42;;;24.70;99.90;;;;;;6181362;23;20017;-76
2023/08/14 07:01:26;;;;;;;3.85;2.45;;;24.80;99.90;;;;;;6179171;23;20036;-76
2023/08/14 07:03:51;;;;;;;3.08;2.85;;;24.80;99.90;;;;;;6182715;23;19997;-76
2023/08/14 07:06:17;;;;;;;3.38;2.30;;;24.80;99.90;;;;;;6181616;23;20012;-76
2023/08/14 07:08:43;;;;;;;2.78;2.55;;;24.90;99.90;;;;;;6182900;23;20541;-76
2023/08/14 07:11:09;;;;;;;2.75;2.55;;;25.00;99.90;;;;;;6183404;23;20005;-76
2023/08/14 07:13:34;;;;;;;2.90;2.60;;;25.00;99.90;;;;;;6182992;23;20001;-76
2023/08/14 07:16:00;;;;;;;2.55;2.25;;;25.10;99.90;;;;;;6183207;23;20433;-76
2023/08/14 07:18:26;;;;;;;2.50;2.40;;;25.10;99.90;;;;;;6182926;23;20029;-76
2023/08/14 07:20:52;;;;;;;4.95;2.80;;;25.10;99.90;;;;;;6182910;23;20453;-76
2023/08/14 07:23:19;;;;;;;3.17;2.92;;;25.20;99.90;;;;;;6182896;23;20152;-76
2023/08/14 07:25:45;;;;;;;3.40;3.10;;;25.20;99.90;;;;;;6182114;23;20055;-76
2023/08/14 07:28:11;;;;;;;3.33;2.85;;;25.20;99.90;;;;;;6184628;23;20001;-76
2023/08/14 07:30:38;;;;;;;6.85;3.60;;;25.30;99.90;;;;;;6185002;23;20009;-76
2023/08/14 07:33:05;;;;;;;6.65;3.10;;;25.30;99.90;;;;;;6184454;23;20402;-76
2023/08/14 07:35:30;;;;;;;3.97;2.95;;;25.30;99.90;;;;;;6185103;23;20441;-76
2023/08/14 07:37:57;;;;;;;5.07;3.17;;;25.40;99.90;;;;;;6184611;23;20025;-76
2023/08/14 07:40:23;;;;;;;5.72;3.75;;;25.40;99.90;;;;;;6183219;23;20472;-76
2023/08/14 07:42:49;;;;;;;7.43;4.22;;;25.50;99.90;;;;;;6184559;23;19997;-76
2023/08/14 07:45:15;;;;;;;3.75;3.45;;;25.60;99.90;;;;;;6184707;23;20012;-76
2023/08/14 07:47:41;;;;;;;4.35;3.95;;;25.60;99.90;;;;;;6184463;23;20011;-76
2023/08/14 07:50:07;;;;;;;4.35;3.70;;;25.60;99.90;;;;;;6184638;23;20005;-76
2023/08/14 07:52:34;;;;;;;3.47;3.28;;;25.60;99.90;;;;;;6184350;23;20043;-76
2023/08/14 07:55:00;;;;;;;5.78;4.15;;;25.70;99.90;;;;;;6184864;23;20008;-76
2023/08/14 07:57:27;;;;;;;3.83;3.50;;;25.70;99.90;;;;;;6184214;23;20005;-76
2023/08/14 07:59:54;;;;;;;6.65;3.88;;;25.70;99.90;;;;;;6184307;23;20001;-76
2023/08/14 08:02:20;;;;;;;3.78;3.47;;;25.80;99.90;;;;;;6182504;23;20005;-76
2023/08/14 08:04:46;;;;;;;4.28;3.95;;;25.80;99.90;;;;;;6182779;23;20012;-76
2023/08/14 08:07:12;;;;;;;4.25;3.95;;;25.90;99.90;;;;;;6185374;23;20001;-76
2023/08/14 08:09:41;;;;;;;4.18;3.78;;;25.90;99.90;;;;;;6184446;23;20010;-77
2023/08/14 08:12:08;;;;;;;5.65;3.65;;;26.00;99.90;;;;;;6182974;23;20093;-77
2023/08/14 08:14:35;;;;;;;3.95;3.60;;;26.10;99.90;;;;;;6184493;23;20457;-77
2023/08/14 08:17:01;;;;;;;5.35;3.30;;;26.10;99.90;;;;;;6184533;23;20005;-77
2023/08/14 08:19:27;;;;;;;4.20;3.78;;;26.10;99.90;;;;;;6184349;23;20008;-77
2023/08/14 08:21:52;;;;;;;5.78;3.83;;;26.10;99.90;;;;;;6184312;23;20425;-77
2023/08/14 08:24:19;;;;;;;3.63;3.28;;;26.20;99.90;;;;;;6184349;23;20007;-76
2023/08/14 08:26:45;;;;;;;4.20;3.50;;;26.20;99.90;;;;;;6184546;23;20005;-76
2023/08/14 08:29:11;;;;;;;4.00;3.80;;;26.10;99.90;;;;;;6184228;23;20089;-76
2023/08/14 08:31:36;;;;;;;6.43;3.45;;;26.20;99.90;;;;;;6184567;23;20433;-77
2023/08/14 08:34:02;;;;;;;4.28;3.58;;;26.20;99.90;;;;;;6182374;23;20071;-76
2023/08/14 08:36:28;;;;;;;4.32;3.55;;;26.30;99.90;;;;;;6185022;23;20054;-76
2023/08/14 08:38:54;;;;;;;3.40;3.10;;;26.20;99.90;;;;;;6184437;23;20127;-76
2023/08/14 08:41:43;;;;;;;4.05;3.53;;;26.40;99.90;;;;;;6184941;23;20528;-76
2023/08/14 08:44:15;;;;;;;7.03;4.60;;;26.60;99.90;;;;;;6184441;23;20001;-76
2023/08/14 08:46:51;;;;;;;4.53;3.55;;;26.60;99.90;;;;;;6185190;23;20001;-76
2023/08/14 08:49:17;;;;;;;3.58;3.38;;;26.60;99.90;;;;;;6184761;23;20004;-77
2023/08/14 08:51:44;;;;;;;4.10;3.78;;;26.50;99.90;;;;;;6184419;23;20017;-77
2023/08/14 08:54:11;;;;;;;4.00;3.70;;;26.50;99.90;;;;;;6184124;23;20005;-76
2023/08/14 08:56:41;;;;;;;3.97;3.53;;;26.50;99.90;;;;;;6184572;23;20379;-77
2023/08/14 08:59:08;;;;;;;6.30;3.70;;;26.70;99.90;;;;;;6182648;23;20005;-77
2023/08/14 09:01:34;;;;;;;4.10;3.70;;;26.80;99.90;;;;;;6182424;23;20075;-76
2023/08/14 09:04:01;;;;;;;3.63;3.42;;;26.80;99.90;;;;;;6183514;23;19997;-76
2023/08/14 09:06:26;;;;;;;4.97;4.03;;;26.80;99.90;;;;;;6184202;23;20031;-76
2023/08/14 09:08:53;;;;;;;5.43;3.72;;;26.90;99.90;;;;;;6183871;23;19997;-76
2023/08/14 09:11:18;;;;;;;4.70;3.53;;;27.00;99.90;;;;;;6182639;23;20087;-77
2023/08/14 09:13:45;;;;;;;4.97;4.18;;;26.90;99.90;;;;;;6183886;23;20028;-76
2023/08/14 09:16:15;;;;;;;4.63;3.95;;;27.00;99.90;;;;;;6184334;23;20033;-76
2023/08/14 09:18:45;;;;;;;3.78;3.47;;;27.00;99.90;;;;;;6182232;23;20453;-77
2023/08/14 09:21:12;;;;;;;3.83;3.55;;;27.00;99.90;;;;;;6184005;23;20099;-77
2023/08/14 09:23:42;;;;;;;6.00;4.45;;;27.00;99.90;;;;;;6183963;23;19997;-77
2023/08/14 09:26:08;;;;;;;4.53;4.10;;;27.00;99.90;;;;;;6184153;23;20001;-76
2023/08/14 09:28:35;;;;;;;6.10;4.10;;;27.10;99.90;;;;;;6183848;23;20011;-76
2023/08/14 09:31:08;;;;;;;5.78;4.30;;;27.20;99.90;;;;;;6183354;23;20005;-77
2023/08/14 09:33:36;;;;;;;6.53;4.55;;;27.40;99.90;;;;;;6182578;23;20034;-77
2023/08/14 09:36:05;;;;;;;4.38;3.97;;;27.40;99.90;;;;;;6184139;23;19997;-77
2023/08/14 09:38:31;;;;;;;5.68;4.82;;;27.40;99.90;;;;;;6183769;23;20005;-76
2023/08/14 09:41:00;;;;;;;8.68;4.38;;;27.40;99.90;;;;;;6183759;23;20456;-77
2023/08/14 09:43:28;;;;;;;4.40;4.10;;;27.50;99.90;;;;;;6183525;23;20078;-76
2023/08/14 09:45:57;;;;;;;4.32;4.03;;;27.50;99.90;;;;;;6183879;23;20335;-76
2023/08/14 09:48:38;;;;;;;4.93;4.57;;;27.50;99.90;;;;;;6183245;23;20059;-77
2023/08/14 09:51:03;;;;;;;8.33;3.90;;;27.70;99.90;;;;;;6183762;23;20044;-76
2023/08/14 09:53:29;;;;;;;6.43;4.03;;;27.80;99.90;;;;;;6183396;23;20727;-76
2023/08/14 09:55:55;;;;;;;4.63;4.18;;;27.80;99.90;;;;;;6183885;23;20001;-77
2023/08/14 09:58:21;;;;;;;5.57;4.57;;;27.90;99.90;;;;;;6183518;23;20008;-76
2023/08/14 10:00:48;;;;;;;7.18;4.53;;;27.90;99.90;;;;;;6183515;23;20075;-76
2023/08/14 10:03:15;;;;;;;5.07;4.07;;;27.90;99.90;;;;;;6183141;23;20012;-76
2023/08/14 10:05:41;;;;;;;5.22;4.45;;;27.90;99.90;;;;;;6183751;23;20377;-76
2023/08/14 10:08:10;;;;;;;4.30;3.90;;;28.00;99.90;;;;;;6183504;23;20004;-76
2023/08/14 10:10:38;;;;;;;6.47;4.50;;;28.00;99.90;;;;;;6182200;23;20005;-76
2023/08/14 10:13:08;;;;;;;6.70;4.60;;;28.10;99.90;;;;;;6183218;23;20005;-76
2023/08/14 10:15:43;;;;;;;4.93;4.43;;;28.20;99.90;;;;;;6181091;23;20388;-76
2023/08/14 10:18:14;;;;;;;4.82;3.97;;;28.20;99.90;;;;;;6182048;23;20005;-76
2023/08/14 10:20:42;;;;;;;6.47;3.78;;;28.30;99.90;;;;;;6180395;23;20452;-77
2023/08/14 10:23:08;;;;;;;6.65;4.43;;;28.30;99.90;;;;;;6181550;23;19997;-76
2023/08/14 10:25:38;;;;;;;5.32;4.65;;;28.30;99.90;;;;;;6182299;23;20001;-77
2023/08/14 10:28:07;;;;;;;11.02;4.53;;;28.30;99.90;;;;;;6182042;23;20084;-76
2023/08/14 10:30:37;;;;;;;5.07;4.70;;;28.30;99.90;;;;;;6181841;23;20062;-77
2023/08/14 10:33:03;;;;;;;5.53;4.60;;;28.30;99.90;;;;;;6184771;23;20009;-76
2023/08/14 10:35:29;;;;;;;5.75;5.00;;;28.50;99.90;;;;;;6184028;23;20005;-73
2023/08/14 10:37:55;;;;;;;8.68;5.63;;;28.60;99.90;;;;;;6183176;23;20310;-73
2023/08/14 10:40:23;;;;;;;11.32;5.40;;;28.60;99.90;;;;;;6183278;23;20409;-74
2023/08/14 10:42:52;;;;;;;10.95;5.00;;;28.70;99.90;;;;;;6182950;23;20002;-74
2023/08/14 10:45:22;;;;;;;7.53;4.43;;;28.80;99.90;;;;;;6184112;23;20080;-74
2023/08/14 10:47:49;;;;;;;5.97;5.22;;;28.80;99.90;;;;;;6183791;23;20052;-74
2023/08/14 10:50:18;;;;;;;7.95;4.47;;;28.90;99.90;;;;;;6182847;23;20329;-74
2023/08/14 10:52:52;;;;;;;5.43;4.72;;;29.20;99.90;;;;;;6183560;23;20070;-74
2023/08/14 10:55:24;;;;;;;5.03;4.60;;;29.30;99.90;;;;;;6184519;23;20072;-74
2023/08/14 10:57:50;;;;;;;8.55;5.00;;;29.40;99.90;;;;;;6184318;23;20005;-73
2023/08/14 11:00:25;;;;;;;5.00;4.60;;;29.40;99.90;;;;;;6183837;23;20001;-77
2023/08/14 11:02:52;;;;;;;4.60;4.28;;;29.40;99.90;;;;;;6184830;23;20001;-76
2023/08/14 11:05:18;;;;;;;6.13;3.90;;;29.40;99.90;;;;;;6185904;23;20786;-74
2023/08/14 11:07:57;;;;;;;4.90;3.95;;;29.50;99.90;;;;;;6182805;23;20076;-74
2023/08/14 11:10:26;;;;;;;9.90;3.72;;;29.70;98.40;;;;;;6183903;23;20028;-74
2023/08/14 11:12:54;;;;;;;6.05;3.72;;;29.80;98.10;;;;;;6184503;23;20086;-74
2023/08/14 11:15:23;;;;;;;5.57;4.60;;;29.90;98.10;;;;;;6185104;23;20021;-74
2023/08/14 11:17:49;;;;;;;5.30;4.38;;;29.80;98.20;;;;;;6182780;23;20005;-73
2023/08/14 11:20:15;;;;;;;5.20;4.30;;;29.90;98.30;;;;;;6183017;23;20004;-74
2023/08/14 11:22:45;;;;;;;6.93;4.05;;;30.00;98.60;;;;;;6183724;23;20092;-74
2023/08/14 11:25:15;;;;;;;7.05;4.53;;;30.10;98.70;;;;;;6186276;23;20001;-74
2023/08/14 11:27:41;;;;;;;7.22;4.18;;;30.10;96.80;;;;;;6186044;23;20024;-74
2023/08/14 11:30:07;;;;;;;5.07;3.80;;;30.10;98.30;;;;;;6184567;23;20005;-74
2023/08/14 11:32:33;;;;;;;3.83;3.63;;;30.20;99.00;;;;;;6185195;23;19997;-74
2023/08/14 11:34:59;;;;;;;5.25;3.45;;;30.40;99.80;;;;;;6185593;23;19997;-74
2023/08/14 11:37:25;;;;;;;4.57;3.47;;;30.40;99.30;;;;;;6184183;23;20040;-74
2023/08/14 11:39:51;;;;;;;3.65;3.35;;;30.40;99.20;;;;;;6186028;23;20024;-74
2023/08/14 11:42:16;;;;;;;5.88;3.30;;;30.50;99.40;;;;;;6184187;23;20750;-74
2023/08/14 11:44:42;;;;;;;5.10;3.75;;;30.50;99.90;;;;;;6185569;23;20076;-74
2023/08/14 11:47:08;;;;;;;3.80;3.50;;;30.50;98.20;;;;;;6185208;23;20001;-74
2023/08/14 11:49:37;;;;;;;4.05;3.67;;;30.60;95.90;;;;;;6185595;23;20023;-74
2023/08/14 11:52:04;;;;;;;3.58;3.33;;;30.60;97.20;;;;;;6185015;23;20575;-74
2023/08/14 11:54:31;;;;;;;4.10;3.80;;;30.80;97.50;;;;;;6185647;23;20337;-74
2023/08/14 11:57:00;;;;;;;3.58;3.38;;;30.90;96.50;;;;;;6185181;23;20440;-74
2023/08/14 11:59:26;;;;;;;4.90;3.58;;;31.00;96.00;;;;;;6185596;23;20005;-74
2023/08/14 12:01:51;;;;;;;9.93;3.67;;;31.10;96.80;;;;;;6185535;23;20433;-74
2023/08/14 12:04:17;;;;;;;4.38;3.08;;;31.10;94.00;;;;;;6185371;23;20095;-74
2023/08/14 12:06:43;;;;;;;3.55;3.35;;;31.10;95.20;;;;;;6185589;23;20028;-74
2023/08/14 12:09:12;;;;;;;4.03;3.55;;;31.10;95.40;;;;;;6183799;23;20325;-74
2023/08/14 12:11:38;;;;;;;6.82;3.65;;;31.10;93.70;;;;;;6185797;23;20001;-74
2023/08/14 12:14:06;;;;;;;4.65;3.30;;;31.20;94.30;;;;;;6185064;23;20084;-74
2023/08/14 12:16:31;;;;;;;8.35;3.65;;;31.40;95.60;;;;;;6184077;23;20016;-74
2023/08/14 12:18:57;;;;;;;4.00;3.75;;;31.40;95.00;;;;;;6183863;23;20342;-73
2023/08/14 12:21:27;;;;;;;5.00;3.65;;;31.50;94.50;;;;;;6185687;23;20056;-74
2023/08/14 12:23:55;;;;;;;4.68;3.83;;;31.50;95.60;;;;;;6185673;23;20004;-74
2023/08/14 12:26:22;;;;;;;5.57;4.20;;;31.50;94.40;;;;;;6183725;23;20001;-74
2023/08/14 12:28:48;;;;;;;4.38;3.97;;;31.50;95.30;;;;;;6183715;23;20008;-74
2023/08/14 12:31:14;;;;;;;4.07;3.72;;;31.60;94.80;;;;;;6185216;23;20005;-74
2023/08/14 12:33:42;;;;;;;5.18;3.95;;;31.60;95.50;;;;;;6185141;23;20001;-74
2023/08/14 12:36:12;;;;;;;3.90;3.67;;;31.70;99.90;;;;;;6185467;23;20001;-74
2023/08/14 12:38:38;;;;;;;4.53;4.15;;;31.80;97.20;;;;;;6183495;23;20013;-74
2023/08/14 12:41:05;;;;;;;3.80;3.60;;;31.80;95.90;;;;;;6185231;23;20072;-74
2023/08/14 12:43:31;;;;;;;4.55;3.53;;;31.90;96.60;;;;;;6184775;23;20004;-74
2023/08/14 12:45:58;;;;;;;5.28;3.65;;;32.10;96.20;;;;;;6185338;23;20036;-74